Maurice, Louisiana
Current Conditions -  °F | °C
As of 10:55 AM on Friday 28 Nov 2014 (Local Time) from KIYA Reporting Station
Clear Clear  
Wind Chill: 56°   Ceiling: Unl
Heat Index: 56°   Visibility: 10mi
Dew Point: 39°   Wind: 6mph
Humidity: 53%   Direction: 100°E
Pressure: 30.39"   Gusts: NA
Location:  30.11°N, 92.12°W
Report Text: KIYA 281655Z AUTO 10005KT 10SM CLR 13/04 A3039 RMK AO2 T01320037
Loading
Personal Weather Stations






























Interactive Weather Map New forecast layout! Learn more

10-Day Weather Forecast

Advertisements
Track Severe Weather on mobile